Time;durP1;ratioP1;P1;durP2;ratioP2;P2;SDS_P1;SDS_P2;PMS_P1;PMS_P2;Temp;Humidity;BMP_temperature;BMP_pressure;BME280_temperature;BME280_humidity;BME280_pressure;Samples;Min_cycle;Max_cycle;Signal;HPM_P1;HPM_P2
2023/10/04 00:00:14;;;;;;;6.23;3.50;;;11.30;99.90;;;;;;5097690;28;20425;-70
2023/10/04 00:02:44;;;;;;;6.53;3.87;;;11.40;99.90;;;;;;5100235;28;20905;-70
2023/10/04 00:05:14;;;;;;;7.10;4.07;;;11.40;99.90;;;;;;5107819;28;20429;-71
2023/10/04 00:07:41;;;;;;;9.63;4.37;;;11.40;99.90;;;;;;5100331;28;20917;-70
2023/10/04 00:10:09;;;;;;;9.03;4.10;;;11.40;99.90;;;;;;5099120;28;20573;-69
2023/10/04 00:12:35;;;;;;;8.17;3.30;;;11.30;99.90;;;;;;5099108;28;20481;-70
2023/10/04 00:15:02;;;;;;;5.30;3.47;;;11.30;99.90;;;;;;5106671;28;20441;-70
2023/10/04 00:17:29;;;;;;;5.60;4.07;;;11.30;99.90;;;;;;5103646;28;20446;-70
2023/10/04 00:19:57;;;;;;;6.33;3.90;;;11.30;99.90;;;;;;5102202;28;20442;-69
2023/10/04 00:22:24;;;;;;;8.17;3.70;;;11.30;99.90;;;;;;5098980;28;20572;-69
2023/10/04 00:24:51;;;;;;;7.17;3.73;;;11.30;99.90;;;;;;5092564;28;20857;-69
2023/10/04 00:27:18;;;;;;;6.67;3.90;;;11.30;99.90;;;;;;5095824;28;20470;-69
2023/10/04 00:29:45;;;;;;;4.40;3.60;;;11.30;99.90;;;;;;5100154;28;20582;-70
2023/10/04 00:32:13;;;;;;;4.93;3.20;;;11.20;99.90;;;;;;5100519;28;20466;-69
2023/10/04 00:34:40;;;;;;;8.43;4.13;;;11.20;99.90;;;;;;5109972;28;20454;-69
2023/10/04 00:37:09;;;;;;;8.53;3.93;;;11.20;99.90;;;;;;5108389;28;20640;-69
2023/10/04 00:39:36;;;;;;;10.93;4.07;;;11.10;99.90;;;;;;5109940;28;20446;-72
2023/10/04 00:42:04;;;;;;;7.23;3.93;;;11.10;99.90;;;;;;5096787;28;20941;-69
2023/10/04 00:44:34;;;;;;;7.73;3.80;;;11.10;99.90;;;;;;5100642;28;20447;-69
2023/10/04 00:47:02;;;;;;;8.83;3.47;;;11.10;99.90;;;;;;5095406;28;20495;-69
2023/10/04 00:49:31;;;;;;;9.60;4.00;;;11.10;99.90;;;;;;5098732;28;20515;-70
2023/10/04 00:51:59;;;;;;;4.90;3.40;;;11.10;99.90;;;;;;5099247;28;20548;-70
2023/10/04 00:54:27;;;;;;;7.43;3.77;;;11.00;99.90;;;;;;5106895;28;20447;-70
2023/10/04 00:56:55;;;;;;;7.17;4.17;;;11.10;99.90;;;;;;5100305;28;20450;-70
2023/10/04 00:59:21;;;;;;;5.10;3.80;;;11.10;99.90;;;;;;5108574;28;20454;-70
2023/10/04 01:01:48;;;;;;;8.20;3.90;;;11.10;99.90;;;;;;5109381;28;20504;-70
2023/10/04 01:04:15;;;;;;;4.40;3.10;;;11.10;99.90;;;;;;5108230;28;20530;-70
2023/10/04 01:06:44;;;;;;;6.30;3.43;;;11.10;99.90;;;;;;5108568;28;20450;-70
2023/10/04 01:09:11;;;;;;;9.07;3.80;;;11.10;99.90;;;;;;5107603;28;20454;-70
2023/10/04 01:11:46;;;;;;;9.47;3.63;;;11.10;99.90;;;;;;5107293;28;20527;-70
2023/10/04 01:14:23;;;;;;;4.00;3.60;;;11.20;99.90;;;;;;5100211;28;20473;-70
2023/10/04 01:16:51;;;;;;;5.60;3.03;;;11.20;99.90;;;;;;5095731;28;20450;-69
2023/10/04 01:19:19;;;;;;;9.93;4.10;;;11.20;99.90;;;;;;5097897;28;20454;-69
2023/10/04 01:21:47;;;;;;;6.73;3.50;;;11.20;99.90;;;;;;5102004;28;20454;-70
2023/10/04 01:24:16;;;;;;;3.50;3.17;;;11.20;99.90;;;;;;5098861;28;20454;-70
2023/10/04 01:26:43;;;;;;;5.33;3.63;;;11.20;99.90;;;;;;5091541;28;20446;-70
2023/10/04 01:29:11;;;;;;;5.73;3.10;;;11.30;99.90;;;;;;5096622;28;20490;-70
2023/10/04 01:31:38;;;;;;;7.10;3.47;;;11.30;99.90;;;;;;5099123;28;21018;-70
2023/10/04 01:34:06;;;;;;;4.77;3.27;;;11.30;99.90;;;;;;5101144;28;20481;-69
2023/10/04 01:36:36;;;;;;;11.10;3.50;;;11.40;99.90;;;;;;5097372;28;20478;-69
2023/10/04 01:39:07;;;;;;;11.03;3.80;;;11.30;99.90;;;;;;5097792;28;20453;-70
2023/10/04 01:41:37;;;;;;;6.10;3.13;;;11.30;99.90;;;;;;5102097;28;20520;-70
2023/10/04 01:44:04;;;;;;;6.83;3.17;;;11.30;99.90;;;;;;5106830;28;20474;-70
2023/10/04 01:46:31;;;;;;;7.53;3.40;;;11.30;99.90;;;;;;5109899;28;20818;-70
2023/10/04 01:48:58;;;;;;;7.57;3.07;;;11.40;99.90;;;;;;5101649;28;20502;-69
2023/10/04 01:51:26;;;;;;;5.83;3.23;;;11.50;99.90;;;;;;5109738;28;20770;-69
2023/10/04 01:53:53;;;;;;;3.30;3.00;;;11.50;99.90;;;;;;5101389;28;20482;-69
2023/10/04 01:56:20;;;;;;;5.93;2.87;;;11.50;99.90;;;;;;5109161;28;20439;-69
2023/10/04 01:58:48;;;;;;;5.90;2.77;;;11.60;99.90;;;;;;5105698;28;20912;-69
2023/10/04 02:01:15;;;;;;;6.20;3.83;;;11.70;99.90;;;;;;5096481;28;20459;-69
2023/10/04 02:03:42;;;;;;;6.13;2.80;;;11.70;99.90;;;;;;5095476;28;20473;-70
2023/10/04 02:06:09;;;;;;;12.77;2.70;;;11.70;99.90;;;;;;5105473;28;20450;-69
2023/10/04 02:08:35;;;;;;;4.60;2.43;;;11.80;99.90;;;;;;5105941;28;20450;-70
2023/10/04 02:11:05;;;;;;;5.87;2.87;;;11.80;99.90;;;;;;5109740;28;20998;-69
2023/10/04 02:13:32;;;;;;;10.00;3.30;;;11.90;99.90;;;;;;5100517;28;20470;-69
2023/10/04 02:16:08;;;;;;;5.57;2.50;;;11.80;99.90;;;;;;5090454;28;20465;-69
2023/10/04 02:18:35;;;;;;;7.73;3.00;;;11.90;99.90;;;;;;5108062;28;20552;-69
2023/10/04 02:21:01;;;;;;;7.00;2.73;;;11.80;99.90;;;;;;5102876;28;20853;-69
2023/10/04 02:23:29;;;;;;;13.13;3.00;;;11.80;99.90;;;;;;5108675;28;20484;-70
2023/10/04 02:25:57;;;;;;;4.43;2.47;;;11.90;99.90;;;;;;5101434;28;20812;-70
2023/10/04 02:28:25;;;;;;;6.73;3.07;;;11.80;99.90;;;;;;5105481;28;20492;-69
2023/10/04 02:30:54;;;;;;;5.87;3.30;;;11.90;99.90;;;;;;5098499;28;20494;-70
2023/10/04 02:33:22;;;;;;;12.17;3.30;;;11.90;99.90;;;;;;5102840;28;20502;-69
2023/10/04 02:35:50;;;;;;;4.40;2.40;;;11.90;99.90;;;;;;5106881;28;20501;-69
2023/10/04 02:38:19;;;;;;;8.20;2.70;;;11.90;99.90;;;;;;5110390;28;20454;-69
2023/10/04 02:40:46;;;;;;;5.63;2.70;;;11.90;99.90;;;;;;5112372;28;20453;-69
2023/10/04 02:43:15;;;;;;;8.33;3.20;;;11.90;99.90;;;;;;5113231;28;21151;-69
2023/10/04 02:45:42;;;;;;;6.80;2.97;;;11.90;99.90;;;;;;5100881;27;20489;-69
2023/10/04 02:48:10;;;;;;;3.17;2.50;;;11.90;99.90;;;;;;5093974;28;20924;-69
2023/10/04 02:50:39;;;;;;;9.67;3.10;;;11.90;99.90;;;;;;5094343;28;20565;-69
2023/10/04 02:53:08;;;;;;;8.00;3.00;;;11.90;99.90;;;;;;5093576;28;20474;-70
2023/10/04 02:55:36;;;;;;;13.23;3.40;;;11.90;99.90;;;;;;5094542;28;20510;-69
2023/10/04 02:58:05;;;;;;;6.50;3.23;;;11.90;99.90;;;;;;5094288;28;20538;-69
2023/10/04 03:00:33;;;;;;;8.00;2.93;;;11.90;99.90;;;;;;5094371;28;20482;-69
2023/10/04 03:03:00;;;;;;;8.43;2.60;;;11.90;99.90;;;;;;5093765;28;20482;-69
2023/10/04 03:05:29;;;;;;;3.60;3.23;;;11.90;99.90;;;;;;5093879;28;20441;-69
2023/10/04 03:08:03;;;;;;;11.60;2.70;;;11.90;99.90;;;;;;5094163;28;20522;-68
2023/10/04 03:10:32;;;;;;;6.20;2.70;;;11.90;99.90;;;;;;5086526;28;20862;-69
2023/10/04 03:13:01;;;;;;;5.60;3.20;;;11.90;99.90;;;;;;5093642;28;20474;-69
2023/10/04 03:15:29;;;;;;;5.60;2.57;;;11.90;99.90;;;;;;5094081;28;20795;-69
2023/10/04 03:17:58;;;;;;;12.40;3.20;;;11.80;99.90;;;;;;5094240;28;20496;-69
2023/10/04 03:20:29;;;;;;;13.20;2.90;;;11.80;99.90;;;;;;5092822;28;20526;-69
2023/10/04 03:22:59;;;;;;;7.63;3.10;;;11.80;99.90;;;;;;5093097;28;20565;-69
2023/10/04 03:25:26;;;;;;;11.20;4.00;;;11.80;99.90;;;;;;5094853;28;20955;-69
2023/10/04 03:27:54;;;;;;;9.27;2.93;;;11.80;99.90;;;;;;5093891;28;20482;-69
2023/10/04 03:30:21;;;;;;;7.40;3.20;;;11.80;99.90;;;;;;5092976;28;20936;-69
2023/10/04 03:32:52;;;;;;;8.80;3.20;;;11.70;99.90;;;;;;5093908;28;21007;-69
2023/10/04 03:35:21;;;;;;;12.43;3.67;;;11.70;99.90;;;;;;5094933;28;20455;-69
2023/10/04 03:37:50;;;;;;;6.53;3.30;;;11.60;99.90;;;;;;5094720;28;20454;-69
2023/10/04 03:40:18;;;;;;;6.30;3.07;;;11.50;99.90;;;;;;5094102;28;20541;-69
2023/10/04 03:42:47;;;;;;;15.33;3.47;;;11.50;99.90;;;;;;5093722;28;20474;-69
2023/10/04 03:45:17;;;;;;;10.93;3.47;;;11.50;99.90;;;;;;5091915;28;20507;-69
2023/10/04 03:47:44;;;;;;;10.63;4.37;;;11.30;99.90;;;;;;5094496;28;20936;-69
2023/10/04 03:50:12;;;;;;;7.77;4.20;;;11.00;99.90;;;;;;5095172;28;20483;-69
2023/10/04 03:52:41;;;;;;;8.87;4.67;;;10.80;99.90;;;;;;5093548;28;20470;-69
2023/10/04 03:55:10;;;;;;;20.33;9.93;;;10.50;99.90;;;;;;5094015;28;20457;-70
2023/10/04 03:57:42;;;;;;;10.63;6.37;;;10.30;99.90;;;;;;5094406;28;20542;-69
2023/10/04 04:00:11;;;;;;;8.87;5.30;;;10.10;99.90;;;;;;5095490;28;20876;-69
2023/10/04 04:02:38;;;;;;;10.30;5.17;;;10.00;99.90;;;;;;5094184;28;20470;-69
2023/10/04 04:05:13;;;;;;;6.57;5.30;;;9.80;99.90;;;;;;5095226;28;20537;-69
2023/10/04 04:07:41;;;;;;;7.23;5.77;;;9.60;99.90;;;;;;5094771;28;20464;-69
2023/10/04 04:10:08;;;;;;;12.20;6.20;;;9.40;99.90;;;;;;5095210;28;20451;-69
2023/10/04 04:12:36;;;;;;;11.53;6.80;;;9.30;99.90;;;;;;5094268;28;20490;-69
2023/10/04 04:15:08;;;;;;;11.37;6.37;;;9.20;99.90;;;;;;5093036;28;20498;-69
2023/10/04 04:17:35;;;;;;;17.30;7.47;;;9.10;99.90;;;;;;5094822;28;20443;-69
2023/10/04 04:20:08;;;;;;;11.00;7.10;;;9.00;99.90;;;;;;5092158;28;20446;-69
2023/10/04 04:22:35;;;;;;;10.10;6.90;;;9.00;99.90;;;;;;5093941;28;20558;-69
2023/10/04 04:25:11;;;;;;;8.70;5.90;;;9.00;99.90;;;;;;5094314;28;20447;-69
2023/10/04 04:27:37;;;;;;;8.77;6.47;;;8.90;99.90;;;;;;5094759;28;20446;-69
2023/10/04 04:30:08;;;;;;;10.87;6.20;;;8.90;99.90;;;;;;5092894;28;20454;-69
2023/10/04 04:32:36;;;;;;;18.30;5.93;;;8.90;99.90;;;;;;5094215;28;20911;-69
2023/10/04 04:35:04;;;;;;;9.67;6.23;;;9.00;99.90;;;;;;5094260;28;20493;-69
2023/10/04 04:37:36;;;;;;;10.13;5.90;;;8.90;99.90;;;;;;5094886;28;20952;-69
2023/10/04 04:40:08;;;;;;;11.20;5.90;;;9.00;99.90;;;;;;5095011;28;20447;-69
2023/10/04 04:42:38;;;;;;;8.50;5.37;;;9.10;99.90;;;;;;5094498;28;20467;-69
2023/10/04 04:45:08;;;;;;;6.10;4.77;;;9.10;99.90;;;;;;5095001;28;20542;-69
2023/10/04 04:47:35;;;;;;;10.37;5.47;;;9.10;99.90;;;;;;5094324;28;20948;-69
2023/10/04 04:50:02;;;;;;;17.47;6.87;;;9.10;99.90;;;;;;5094344;28;20960;-69
2023/10/04 04:52:30;;;;;;;11.10;5.90;;;9.10;99.90;;;;;;5093997;28;20494;-69
2023/10/04 04:54:58;;;;;;;10.43;6.03;;;9.10;99.90;;;;;;5092131;28;20477;-69
2023/10/04 04:57:24;;;;;;;9.70;6.80;;;9.20;99.90;;;;;;5091864;28;20504;-69
2023/10/04 04:59:55;;;;;;;11.20;6.90;;;9.20;99.90;;;;;;5094710;28;20454;-69
2023/10/04 05:02:28;;;;;;;17.17;6.60;;;9.20;99.90;;;;;;5094728;28;20513;-69
2023/10/04 05:04:55;;;;;;;13.23;5.93;;;9.20;99.90;;;;;;5094799;28;20541;-69
2023/10/04 05:07:21;;;;;;;8.83;5.80;;;9.20;99.90;;;;;;5093482;28;20457;-69
2023/10/04 05:09:48;;;;;;;11.53;6.30;;;9.20;99.90;;;;;;5094230;28;20832;-69
2023/10/04 05:12:14;;;;;;;8.93;5.50;;;9.30;99.90;;;;;;5094604;28;20839;-69
2023/10/04 05:14:41;;;;;;;14.87;6.80;;;9.30;99.90;;;;;;5090947;28;20512;-70
2023/10/04 05:17:08;;;;;;;11.57;4.67;;;9.30;99.90;;;;;;5094814;28;20450;-70
2023/10/04 05:19:36;;;;;;;9.40;6.67;;;9.30;99.90;;;;;;5090463;28;20956;-70
2023/10/04 05:22:02;;;;;;;13.50;6.47;;;9.30;99.90;;;;;;5090074;28;20499;-70
2023/10/04 05:24:30;;;;;;;13.37;6.57;;;9.30;99.90;;;;;;5095953;28;20534;-69
2023/10/04 05:26:57;;;;;;;11.37;6.47;;;9.30;99.90;;;;;;5093684;28;20462;-69
2023/10/04 05:29:23;;;;;;;12.57;6.10;;;9.30;99.90;;;;;;5094248;28;20527;-69
2023/10/04 05:31:50;;;;;;;9.73;6.30;;;9.30;99.90;;;;;;5092281;28;20482;-70
2023/10/04 05:34:17;;;;;;;11.60;6.30;;;9.30;99.90;;;;;;5093462;28;20451;-69
2023/10/04 05:36:46;;;;;;;11.73;6.23;;;9.30;99.90;;;;;;5093084;28;20873;-69
2023/10/04 05:39:14;;;;;;;8.00;5.47;;;9.30;99.90;;;;;;5095069;28;21066;-69
2023/10/04 05:41:41;;;;;;;10.70;5.93;;;9.30;99.90;;;;;;5093999;28;20441;-69
2023/10/04 05:44:08;;;;;;;9.30;5.40;;;9.30;99.90;;;;;;5095122;28;20475;-69
2023/10/04 05:46:37;;;;;;;7.17;5.10;;;9.30;99.90;;;;;;5095360;28;20504;-69
2023/10/04 05:49:09;;;;;;;15.33;5.97;;;9.30;99.90;;;;;;5094672;28;20495;-69
2023/10/04 05:51:36;;;;;;;11.50;5.10;;;9.30;99.90;;;;;;5095097;28;20698;-69
2023/10/04 05:54:04;;;;;;;11.63;5.50;;;9.40;99.90;;;;;;5094915;28;20466;-69
2023/10/04 05:56:30;;;;;;;8.90;5.57;;;9.40;99.90;;;;;;5094276;28;20455;-69
2023/10/04 05:59:00;;;;;;;8.00;5.40;;;9.50;99.90;;;;;;5095053;28;20979;-67
2023/10/04 06:01:28;;;;;;;7.90;5.57;;;9.50;99.90;;;;;;5091408;28;20449;-67
2023/10/04 06:03:55;;;;;;;10.77;5.40;;;9.50;99.90;;;;;;5090845;28;20546;-68
2023/10/04 06:06:23;;;;;;;8.63;5.30;;;9.50;99.90;;;;;;5094058;28;20472;-67
2023/10/04 06:08:52;;;;;;;8.83;5.63;;;9.60;99.90;;;;;;5093982;28;20455;-68
2023/10/04 06:11:20;;;;;;;9.13;5.60;;;9.60;99.90;;;;;;5096810;28;20999;-69
2023/10/04 06:13:47;;;;;;;13.60;4.80;;;9.60;99.90;;;;;;5092581;28;20467;-67
2023/10/04 06:16:19;;;;;;;10.03;5.47;;;9.60;99.90;;;;;;5090659;28;20914;-67
2023/10/04 06:18:48;;;;;;;6.27;5.10;;;9.60;99.90;;;;;;5092845;28;20443;-68
2023/10/04 06:21:16;;;;;;;14.60;5.43;;;9.70;99.90;;;;;;5094944;28;20512;-68
2023/10/04 06:23:43;;;;;;;7.13;4.70;;;9.90;99.90;;;;;;5090342;28;20476;-68
2023/10/04 06:26:16;;;;;;;7.83;4.73;;;10.10;99.90;;;;;;5091547;28;20501;-68
2023/10/04 06:28:46;;;;;;;14.80;5.33;;;10.30;99.90;;;;;;5095053;28;20447;-68
2023/10/04 06:31:12;;;;;;;7.47;4.30;;;10.90;99.90;;;;;;5089827;28;20447;-68
2023/10/04 06:33:40;;;;;;;9.10;4.90;;;11.40;99.90;;;;;;5093780;28;20548;-68
2023/10/04 06:36:08;;;;;;;12.80;4.47;;;11.90;99.90;;;;;;5095176;28;20462;-68
2023/10/04 06:38:35;;;;;;;10.67;5.40;;;12.50;99.90;;;;;;5093372;28;20450;-68
2023/10/04 06:41:03;;;;;;;8.17;4.90;;;12.90;99.90;;;;;;5089419;28;20537;-68
2023/10/04 06:43:30;;;;;;;9.53;4.77;;;13.40;99.90;;;;;;5089145;28;20462;-68
2023/10/04 06:45:59;;;;;;;12.20;5.47;;;13.70;99.90;;;;;;5090732;28;20455;-68
2023/10/04 06:48:25;;;;;;;12.00;4.40;;;14.00;99.90;;;;;;5090832;28;20449;-68
2023/10/04 06:50:52;;;;;;;4.73;3.67;;;14.30;99.90;;;;;;5093317;28;20505;-67
2023/10/04 06:53:21;;;;;;;6.83;4.30;;;14.40;99.90;;;;;;5095346;28;20486;-68
2023/10/04 06:55:47;;;;;;;10.70;4.20;;;14.10;99.90;;;;;;5095399;28;20458;-68
2023/10/04 06:58:15;;;;;;;5.10;4.10;;;14.10;99.90;;;;;;5095158;28;20454;-68
2023/10/04 07:00:42;;;;;;;7.20;4.53;;;14.30;99.90;;;;;;5095609;28;20520;-68
2023/10/04 07:03:10;;;;;;;7.33;4.10;;;14.60;99.90;;;;;;5096203;28;20470;-68
2023/10/04 07:05:38;;;;;;;8.30;4.17;;;15.20;99.90;;;;;;5094049;28;20453;-68
2023/10/04 07:08:08;;;;;;;6.70;3.90;;;15.60;99.90;;;;;;5096126;28;20537;-68
2023/10/04 07:10:36;;;;;;;7.60;4.13;;;16.10;99.90;;;;;;5097463;28;20827;-68
2023/10/04 07:13:03;;;;;;;8.97;4.83;;;16.40;99.90;;;;;;5090351;28;20494;-68
2023/10/04 07:15:35;;;;;;;11.63;4.53;;;16.60;99.90;;;;;;5089982;28;20843;-68
2023/10/04 07:18:02;;;;;;;9.20;4.30;;;16.90;99.90;;;;;;5090299;28;20456;-68
2023/10/04 07:20:30;;;;;;;5.20;4.10;;;17.10;99.90;;;;;;5093696;28;20429;-68
2023/10/04 07:22:59;;;;;;;13.03;4.30;;;17.20;99.90;;;;;;5091486;28;20478;-67
2023/10/04 07:25:27;;;;;;;10.93;4.30;;;17.30;99.90;;;;;;5098787;28;20462;-68
2023/10/04 07:27:55;;;;;;;7.20;4.23;;;17.30;99.90;;;;;;5098723;28;20996;-67
2023/10/04 07:30:22;;;;;;;10.33;3.90;;;17.50;99.90;;;;;;5095002;28;20466;-68
2023/10/04 07:32:49;;;;;;;8.90;4.20;;;17.50;99.90;;;;;;5094258;28;20547;-68
2023/10/04 07:35:19;;;;;;;8.07;4.40;;;17.50;99.90;;;;;;5098106;28;20552;-68
2023/10/04 07:37:47;;;;;;;14.37;4.70;;;17.50;99.90;;;;;;5099406;28;20484;-68
2023/10/04 07:40:16;;;;;;;8.07;3.93;;;17.60;99.90;;;;;;5101567;28;20884;-68
2023/10/04 07:42:45;;;;;;;7.30;3.90;;;17.60;99.90;;;;;;5099611;28;20484;-68
2023/10/04 07:45:12;;;;;;;12.93;4.47;;;17.50;99.90;;;;;;5100755;28;20458;-68
2023/10/04 07:47:41;;;;;;;7.40;4.07;;;17.50;99.90;;;;;;5099320;28;20520;-68
2023/10/04 07:50:10;;;;;;;9.90;4.10;;;17.60;99.90;;;;;;5097073;28;20967;-68
2023/10/04 07:52:38;;;;;;;12.47;3.60;;;17.40;99.90;;;;;;5099827;28;20490;-67
2023/10/04 07:55:12;;;;;;;5.23;3.50;;;17.40;99.90;;;;;;5099924;28;20421;-67
2023/10/04 07:57:42;;;;;;;4.53;3.90;;;17.50;99.90;;;;;;5096045;28;20507;-67
2023/10/04 08:00:12;;;;;;;8.90;3.63;;;17.50;99.90;;;;;;5100429;28;20431;-68
2023/10/04 08:02:41;;;;;;;6.57;3.73;;;17.70;99.90;;;;;;5100857;28;20456;-68
2023/10/04 08:05:10;;;;;;;11.97;3.60;;;17.50;99.90;;;;;;5097398;28;20454;-68
2023/10/04 08:07:38;;;;;;;8.20;3.33;;;17.30;99.90;;;;;;5100987;28;20431;-68
2023/10/04 08:10:07;;;;;;;8.53;4.30;;;17.20;99.90;;;;;;5100209;28;20820;-67
2023/10/04 08:12:34;;;;;;;12.83;3.67;;;17.20;99.90;;;;;;5101005;28;20467;-67
2023/10/04 08:15:02;;;;;;;9.07;3.87;;;16.70;99.90;;;;;;5096305;28;20458;-68
2023/10/04 08:17:29;;;;;;;17.17;4.50;;;16.70;99.90;;;;;;5099758;28;20421;-68
2023/10/04 08:19:58;;;;;;;9.57;3.70;;;16.90;99.90;;;;;;5092420;28;20465;-68
2023/10/04 08:22:25;;;;;;;7.57;4.07;;;16.90;99.90;;;;;;5095676;28;20453;-68
2023/10/04 08:24:53;;;;;;;9.03;3.70;;;16.80;99.90;;;;;;5096466;28;20474;-68
2023/10/04 08:27:21;;;;;;;6.50;3.60;;;16.50;99.90;;;;;;5094564;28;20425;-68
2023/10/04 08:29:48;;;;;;;6.17;3.37;;;16.50;99.90;;;;;;5094300;28;20496;-68
2023/10/04 08:32:17;;;;;;;12.73;4.20;;;16.40;99.90;;;;;;5098628;28;20499;-68
2023/10/04 08:34:45;;;;;;;12.53;4.53;;;16.30;99.90;;;;;;5100829;28;20420;-68
2023/10/04 08:37:13;;;;;;;14.23;3.83;;;16.20;99.90;;;;;;5100547;28;20455;-68
2023/10/04 08:39:40;;;;;;;10.20;3.63;;;16.20;99.90;;;;;;5100829;28;20756;-71
2023/10/04 08:42:07;;;;;;;4.93;3.63;;;16.10;99.90;;;;;;5099213;28;20410;-68
2023/10/04 08:44:35;;;;;;;7.20;4.07;;;16.10;99.90;;;;;;5101914;28;20477;-68
2023/10/04 08:47:06;;;;;;;10.90;3.90;;;15.90;99.90;;;;;;5099497;28;20421;-68
2023/10/04 08:49:45;;;;;;;9.37;4.23;;;15.90;99.90;;;;;;5102368;28;20529;-68
2023/10/04 08:52:21;;;;;;;10.57;3.93;;;15.80;99.90;;;;;;5100304;28;20494;-68
2023/10/04 08:54:53;;;;;;;16.17;3.60;;;15.70;99.90;;;;;;5096845;28;20545;-68
2023/10/04 08:57:21;;;;;;;7.83;3.60;;;15.40;99.90;;;;;;5099174;28;20441;-68
2023/10/04 08:59:51;;;;;;;9.90;3.10;;;15.50;99.90;;;;;;5100572;28;20532;-68
2023/10/04 09:02:22;;;;;;;12.27;3.20;;;15.60;99.90;;;;;;5100909;28;21031;-69
2023/10/04 09:04:51;;;;;;;13.60;3.40;;;15.60;99.90;;;;;;5099725;28;20447;-68
2023/10/04 09:07:19;;;;;;;9.30;2.90;;;15.70;99.90;;;;;;5100819;28;20940;-68
2023/10/04 09:09:47;;;;;;;7.50;2.63;;;15.70;99.90;;;;;;5100274;28;20438;-69
2023/10/04 09:12:14;;;;;;;9.83;2.83;;;15.90;99.90;;;;;;5100304;28;20489;-69
2023/10/04 09:14:40;;;;;;;10.43;2.90;;;16.40;99.90;;;;;;5091850;28;20694;-68
2023/10/04 09:17:13;;;;;;;5.73;2.83;;;16.80;99.90;;;;;;5091600;28;20974;-68
2023/10/04 09:19:41;;;;;;;11.20;2.70;;;17.20;99.90;;;;;;5090171;28;20422;-69
2023/10/04 09:22:09;;;;;;;10.20;3.17;;;17.60;99.90;;;;;;5092832;28;20503;-68
2023/10/04 09:24:52;;;;;;;10.30;2.80;;;17.90;99.90;;;;;;5094959;28;20470;-68
2023/10/04 09:27:19;;;;;;;8.40;3.07;;;18.30;99.90;;;;;;5101714;28;20892;-68
2023/10/04 09:29:47;;;;;;;5.60;2.83;;;18.50;99.90;;;;;;5093775;27;20496;-68
2023/10/04 09:32:16;;;;;;;7.37;2.90;;;18.60;99.90;;;;;;5100827;28;20554;-68
2023/10/04 09:34:56;;;;;;;13.00;3.23;;;19.00;99.90;;;;;;5096890;28;20458;-69
2023/10/04 09:37:23;;;;;;;9.30;3.00;;;19.10;99.90;;;;;;5090311;28;20569;-68
2023/10/04 09:39:49;;;;;;;10.10;3.33;;;18.60;99.90;;;;;;5090812;28;20542;-68
2023/10/04 09:42:16;;;;;;;8.80;3.07;;;18.30;99.90;;;;;;5092323;28;20466;-68
2023/10/04 09:44:43;;;;;;;6.93;2.57;;;17.90;99.90;;;;;;5097036;28;20503;-68
2023/10/04 09:47:09;;;;;;;8.30;3.30;;;17.90;99.90;;;;;;5092058;28;20504;-69
2023/10/04 09:49:40;;;;;;;4.70;2.70;;;18.30;99.90;;;;;;5089657;28;20454;-69
2023/10/04 09:52:08;;;;;;;7.33;3.50;;;18.60;99.90;;;;;;5090351;28;20480;-68
2023/10/04 09:54:35;;;;;;;8.47;2.70;;;18.50;99.90;;;;;;5090558;28;20446;-69
2023/10/04 09:57:06;;;;;;;3.93;2.67;;;18.60;99.90;;;;;;5090693;28;20458;-68
2023/10/04 09:59:36;;;;;;;6.43;2.63;;;18.50;99.90;;;;;;5090223;28;20443;-68
2023/10/04 10:02:04;;;;;;;7.93;2.70;;;18.40;99.90;;;;;;5094645;28;20643;-68
2023/10/04 10:04:34;;;;;;;6.90;3.27;;;18.30;99.90;;;;;;5094369;28;20514;-68
2023/10/04 10:07:10;;;;;;;6.60;3.00;;;18.10;99.90;;;;;;5099849;28;20442;-68
2023/10/04 10:09:46;;;;;;;13.10;3.30;;;18.00;99.90;;;;;;5096057;28;20554;-68
2023/10/04 10:12:14;;;;;;;7.73;3.00;;;18.00;99.90;;;;;;5093401;28;20500;-68
2023/10/04 10:14:45;;;;;;;6.87;2.90;;;18.50;99.90;;;;;;5089228;28;20542;-69
2023/10/04 10:17:13;;;;;;;7.50;3.17;;;19.10;99.90;;;;;;5090512;28;20533;-69
2023/10/04 10:19:39;;;;;;;12.00;3.10;;;19.80;99.90;;;;;;5095836;28;20920;-68
2023/10/04 10:22:11;;;;;;;12.40;3.20;;;20.40;99.90;;;;;;5089819;28;20447;-69
2023/10/04 10:24:48;;;;;;;8.73;2.63;;;20.00;99.90;;;;;;5090155;28;20540;-69
2023/10/04 10:27:19;;;;;;;6.80;3.03;;;19.80;99.90;;;;;;5089865;28;20450;-69
2023/10/04 10:29:47;;;;;;;7.33;2.80;;;19.30;99.90;;;;;;5090260;28;20457;-69
2023/10/04 10:32:15;;;;;;;7.77;2.90;;;19.00;99.90;;;;;;5089964;28;20467;-68
2023/10/04 10:34:43;;;;;;;7.27;3.13;;;18.70;99.90;;;;;;5090034;28;20442;-68
2023/10/04 10:37:18;;;;;;;7.50;3.37;;;18.40;99.90;;;;;;5091105;28;20511;-69
2023/10/04 10:39:46;;;;;;;5.20;3.50;;;18.10;99.90;;;;;;5102166;28;20512;-68
2023/10/04 10:42:13;;;;;;;7.10;3.30;;;17.80;99.90;;;;;;5098252;28;20838;-68
2023/10/04 10:44:40;;;;;;;8.53;3.10;;;18.10;99.90;;;;;;5104412;28;20434;-68
2023/10/04 10:47:19;;;;;;;7.00;2.80;;;18.50;99.90;;;;;;5101839;28;20453;-68
2023/10/04 10:50:00;;;;;;;11.90;3.33;;;19.10;99.90;;;;;;5103485;28;20445;-68
2023/10/04 10:52:34;;;;;;;10.50;3.20;;;19.80;99.90;;;;;;5104292;28;20530;-68
2023/10/04 10:55:05;;;;;;;6.87;2.80;;;20.20;99.90;;;;;;5100407;28;20893;-68
2023/10/04 10:57:32;;;;;;;7.03;3.10;;;20.30;99.90;;;;;;5095512;28;20942;-68
2023/10/04 11:00:11;;;;;;;10.60;3.50;;;19.80;99.90;;;;;;5101008;28;20455;-68
2023/10/04 11:02:38;;;;;;;9.40;3.40;;;19.30;99.90;;;;;;5099446;28;20484;-68
2023/10/04 11:05:07;;;;;;;5.53;2.90;;;19.30;99.90;;;;;;5104844;28;20443;-68
2023/10/04 11:07:36;;;;;;;6.13;3.53;;;19.50;99.90;;;;;;5107434;28;20961;-68
2023/10/04 11:10:05;;;;;;;8.00;3.60;;;19.70;99.90;;;;;;5104498;28;20551;-68
2023/10/04 11:12:37;;;;;;;7.00;3.37;;;19.50;99.90;;;;;;5096487;27;20515;-68
2023/10/04 11:15:06;;;;;;;10.37;3.47;;;19.40;99.90;;;;;;5103540;28;20861;-67
2023/10/04 11:17:35;;;;;;;8.80;3.63;;;18.80;99.90;;;;;;5093544;28;20450;-68
2023/10/04 11:20:09;;;;;;;7.30;3.27;;;18.60;99.90;;;;;;5099192;28;20948;-68
2023/10/04 11:22:37;;;;;;;9.60;3.53;;;18.60;99.90;;;;;;5093061;28;20470;-68
2023/10/04 11:25:06;;;;;;;9.03;3.30;;;19.00;99.90;;;;;;5093204;28;21003;-68
2023/10/04 11:27:33;;;;;;;8.93;3.80;;;19.70;99.90;;;;;;5093303;28;20542;-68
2023/10/04 11:30:01;;;;;;;6.97;3.80;;;19.70;99.90;;;;;;5098282;28;20450;-68
2023/10/04 11:32:28;;;;;;;7.77;3.40;;;20.10;99.90;;;;;;5096967;28;20461;-68
2023/10/04 11:34:56;;;;;;;10.07;3.90;;;20.40;99.90;;;;;;5105898;28;20489;-67
2023/10/04 11:37:28;;;;;;;5.00;3.23;;;20.10;99.90;;;;;;5099998;28;20507;-68
2023/10/04 11:39:56;;;;;;;7.80;3.60;;;19.40;99.90;;;;;;5100892;28;20450;-68
2023/10/04 11:42:24;;;;;;;9.03;3.53;;;19.00;99.90;;;;;;5092729;28;20532;-68
2023/10/04 11:44:51;;;;;;;11.37;4.13;;;18.50;99.90;;;;;;5093151;28;20446;-68
2023/10/04 11:47:28;;;;;;;8.87;4.33;;;18.30;99.90;;;;;;5092862;28;20442;-68
2023/10/04 11:49:58;;;;;;;12.30;4.03;;;18.20;99.90;;;;;;5103723;28;20452;-68
2023/10/04 11:52:29;;;;;;;7.87;3.77;;;18.20;99.90;;;;;;5107191;28;20456;-68
2023/10/04 11:54:58;;;;;;;13.73;4.13;;;18.30;99.90;;;;;;5094655;28;20496;-69
2023/10/04 11:57:25;;;;;;;10.33;3.67;;;18.40;99.90;;;;;;5107812;28;20457;-68
2023/10/04 11:59:52;;;;;;;8.27;3.60;;;18.30;99.90;;;;;;5102473;28;20520;-68
2023/10/04 12:02:22;;;;;;;8.17;4.03;;;18.10;99.90;;;;;;5100104;28;20546;-68
2023/10/04 12:04:49;;;;;;;13.20;3.60;;;18.30;99.90;;;;;;5106993;28;20445;-68
2023/10/04 12:07:15;;;;;;;10.33;3.87;;;18.70;99.90;;;;;;5100647;28;20520;-68
2023/10/04 12:09:42;;;;;;;9.73;3.57;;;19.10;99.90;;;;;;5094928;28;20556;-68
2023/10/04 12:12:16;;;;;;;8.60;3.90;;;19.50;99.90;;;;;;5102051;28;21066;-68
2023/10/04 12:14:43;;;;;;;7.17;3.60;;;19.80;99.90;;;;;;5093515;28;20486;-68
2023/10/04 12:17:10;;;;;;;10.50;3.67;;;20.00;99.90;;;;;;5103732;28;20451;-68
2023/10/04 12:19:37;;;;;;;9.77;3.63;;;20.30;99.90;;;;;;5093270;28;20485;-68
2023/10/04 12:22:08;;;;;;;8.90;4.50;;;19.90;99.90;;;;;;5104445;28;20541;-68
2023/10/04 12:24:35;;;;;;;7.33;3.90;;;19.30;99.90;;;;;;5103306;28;20955;-68
2023/10/04 12:27:07;;;;;;;9.67;3.53;;;19.10;99.90;;;;;;5106218;27;20491;-68
2023/10/04 12:29:36;;;;;;;11.57;4.07;;;19.00;99.90;;;;;;5104066;28;20450;-68
2023/10/04 12:32:03;;;;;;;10.13;4.00;;;18.90;99.90;;;;;;5091949;28;20457;-68
2023/10/04 12:34:30;;;;;;;10.97;4.67;;;19.00;99.90;;;;;;5108451;28;21005;-68
2023/10/04 12:36:57;;;;;;;11.23;4.23;;;19.10;99.90;;;;;;5107266;28;20533;-68
2023/10/04 12:39:24;;;;;;;6.00;3.33;;;19.40;99.90;;;;;;5102159;28;20453;-68
2023/10/04 12:41:51;;;;;;;6.40;3.60;;;19.90;99.90;;;;;;5100020;28;20828;-67
2023/10/04 12:44:18;;;;;;;6.90;3.77;;;20.40;99.90;;;;;;5088124;28;20446;-68
2023/10/04 12:46:48;;;;;;;7.20;3.80;;;20.30;99.90;;;;;;5094144;28;20523;-67
2023/10/04 12:49:15;;;;;;;9.17;3.80;;;19.90;99.90;;;;;;5107140;28;20481;-68
2023/10/04 12:51:41;;;;;;;7.43;3.80;;;19.80;99.90;;;;;;5108537;27;20931;-68